-JavaCPC -demo -emu -j-cpc_ani -tools 0-9 A B C D E F G H I J K L M N O P Q R S T U V W X Y Z roms
FILEDATESIZEDLs
KTris by Richard Wilson (PD).zip 2017-04-21 16:14 2 Kb240
Kaiser (G) (19xx).zip 2017-04-21 16:13 91 Kb267
Kane & Nebulus & Renaud - Marche a l'Ombre.zip 2017-04-21 16:13 95 Kb147
Kane (UK) (1986).zip 2017-04-21 16:13 28 Kb232
Kane (UK) (1986) [a1].zip 2017-04-21 16:13 80 Kb242
Kane (UK) (1986) [a2].zip 2017-04-21 16:13 38 Kb227
Kane (UK) (1986) [t1].zip 2017-04-21 16:13 38 Kb244
Karateka (F) (1986).zip 2017-04-21 16:13 50 Kb236
Karateka (F) (1986) [f1].zip 2017-04-21 16:13 50 Kb240
Karateka (F) (1986) [t1].zip 2017-04-21 16:13 50 Kb233
Karateka (F) (1990).zip 2017-04-21 16:13 49 Kb236
Karateka (F) (1990) [t1].zip 2017-04-21 16:13 49 Kb228
Karateka (F).dsk 2017-04-21 16:13 192 Kb239
Karl's Treasure Hunt (UK) (1984).zip 2017-04-21 16:13 11 Kb230
Karl's Treasure Hunt (UK) (1984) [a1].zip 2017-04-21 16:13 84 Kb231
Karl's Treasure Hunt (UK) (1984) [a2].zip 2017-04-21 16:13 11 Kb227
Karnov (E) - Disk 1A.dsk 2017-04-21 16:13 214 Kb227
Karnov (E) - Disk 1B.dsk 2017-04-21 16:13 214 Kb225
Karnov (UK) (1988) (Disk 1 of 2).zip 2017-04-21 16:13 73 Kb218
Karnov (UK) (1988) (Disk 1 of 2) [a1].zip 2017-04-21 16:13 56 Kb214
Karnov (UK) (1988) (Disk 1 of 2) [t1].zip 2017-04-21 16:13 159 Kb228
Karnov (UK) (1988) (Disk 1 of 2) [t2].zip 2017-04-21 16:13 73 Kb213
Karnov (UK) (1988) (Disk 2 of 2).zip 2017-04-21 16:13 62 Kb222
Karnov (UK) (1988) (Disk 2 of 2) [a1].zip 2017-04-21 16:13 105 Kb221
Karnov (UK) (1988) (Disk 2 of 2) [t2].zip 2017-04-21 16:13 62 Kb253
Kat Trap (E).dsk 2017-04-21 16:13 91 Kb219
Kat Trap (UK) (1987).zip 2017-04-21 16:13 34 Kb225
Keep Yourself Alive (F) (1987).zip 2017-04-21 16:13 19 Kb229
Kenny Dalglish Soccer Manager (E).cdt 2017-04-21 16:13 57 Kb237
Kenny Dalglish Soccer Manager (UK) (1989).zip 2017-04-21 16:13 25 Kb222
Kenny Dalglish Soccer Match (UK) (1990).zip 2017-04-21 16:13 29 Kb222
Kentilla (UK) (1985).zip 2017-04-21 16:13 23 Kb227
Kentilla (UK) (1985) [a1].zip 2017-04-21 16:13 30 Kb227
Kentucky Racing (E).cdt 2017-04-21 16:13 45 Kb233
Kentucky Racing (UK) (1990).zip 2017-04-21 16:13 24 Kb220
Kentucky Racing (UK) (1990) [f1].zip 2017-04-21 16:13 24 Kb228
Kessia (F) (19xx).zip 2017-04-21 16:13 72 Kb220
Kettle (E).dsk 2017-04-21 16:13 193 Kb219
Kettle (UK) (1986).zip 2017-04-21 16:13 21 Kb231
Kevin Thacker's CPC Guide (UK) (19xx) (PD) (Disk 1 of 2).zip 2017-04-21 16:13 47 Kb216
Kevin Thacker's CPC Guide (UK) (19xx) (PD) (Disk 2 of 2).zip 2017-04-21 16:13 41 Kb221
Key Factor, The (UK) (1985).zip 2017-04-21 16:13 13 Kb224
Kick Off (UK,F,G,S,I) (1990).zip 2017-04-21 16:13 27 Kb224
Kick Off (UK,F,G,S,I) (1990) [a1].zip 2017-04-21 16:13 131 Kb219
Kick Off (UK,F,G,S,I) (1990) [a2].zip 2017-04-21 16:13 31 Kb215
Kick Off 2 (E) - Disk 1A.dsk 2017-04-21 16:13 178 Kb236
Kick Off 2 (E) - Disk 1B.dsk 2017-04-21 16:13 178 Kb229
Kick Off 2 (F) (1990).zip 2017-04-21 16:13 68 Kb223
Kick Off 2 (F) (1990) [a1].zip 2017-04-21 16:13 68 Kb224
Kikstart II (UK) (1988).zip 2017-04-21 16:13 24 Kb226
Kikstart II (UK) (1988) [a1].zip 2017-04-21 16:13 23 Kb231
Killapede (UK) (1986).zip 2017-04-21 16:13 26 Kb221
Killapede (UK) (1986) [a1].zip 2017-04-21 16:13 26 Kb218
Killapede (UK) (1986) [a2].zip 2017-04-21 16:13 32 Kb230
Killapede (UK) (1986) [a3].zip 2017-04-21 16:13 30 Kb253
Killed Until Dead (UK) (1987) (Disk 1 of 2).zip 2017-04-21 16:13 50 Kb212
Killed Until Dead (UK) (1987) (Disk 2 of 2).zip 2017-04-21 16:13 62 Kb217
Killer Ball (UK) (1991).zip 2017-04-21 16:14 103 Kb221
Killer Ball (UK) (1991) [a1].zip 2017-04-21 16:13 103 Kb220
Killer Ball (UK) (1991) [a2].zip 2017-04-21 16:13 76 Kb219
Killer Ball (UK) (1991) [a3].zip 2017-04-21 16:13 96 Kb216
Killer Cobra (E).cdt 2017-04-21 16:14 49 Kb222
Killer Cobra (UK) (1987).zip 2017-04-21 16:14 27 Kb223
Killer Cobra (UK) (1987) [a1].zip 2017-04-21 16:14 27 Kb221
Killer Cobra (UK) (1987) [a2].zip 2017-04-21 16:14 31 Kb216
Killer Gorilla & Knight Lore & Laserwarp & Molecule Man & Zaxx (F).zip 2017-04-21 16:14 82 Kb141
Killer Gorilla (UK) (1984).zip 2017-04-21 16:14 19 Kb223
Killer Gorilla (UK) (1984) [a1].zip 2017-04-21 16:14 19 Kb229
Killer Gorilla (UK) (1984) [a2].zip 2017-04-21 16:14 15 Kb233
Killer Gorilla (UK) (1984) [a3].zip 2017-04-21 16:14 18 Kb223
Killer Gorilla (UK) (1984) [b1].zip 2017-04-21 16:14 19 Kb223
Killer Gorilla (UK) (1984) [b2].zip 2017-04-21 16:14 19 Kb224
Killer Ring (UK) (1987).zip 2017-04-21 16:14 16 Kb226
Killer Ring (UK) (1987) [a1].zip 2017-04-21 16:14 16 Kb228
Kiloroid (UK) (19xx).zip 2017-04-21 16:14 2 Kb220
Kim (F) (1986).zip 2017-04-21 16:14 9 Kb221
Kinetic (UK) (1987).zip 2017-04-21 16:14 35 Kb220
Kinetic (UK) (1987) [a1].zip 2017-04-21 16:14 36 Kb226
Kinetic (UK) (1987) [a2].zip 2017-04-21 16:14 35 Kb229
Kinetik (E).dsk 2017-04-21 16:14 195 Kb236
Kingdom of Hamil (UK) (1987).zip 2017-04-21 16:14 57 Kb221
Kingdoms (UK) (1985).zip 2017-04-21 16:14 5 Kb220
Kit de Telechargement - Telecharge Amstrad CPC (F).dsk 2017-04-21 16:14 217 Kb229
Kit de Telechargement pour Amstrad CPC (F).dsk 2017-04-21 16:14 191 Kb244
Klax & Meynaumede (F) & Nervous Break Down (F) & Skweek.zip 2017-04-21 16:14 97 Kb142
Klax (E).dsk 2017-04-21 16:14 172 Kb225
Klax (UK) (1990) (CPM).zip 2017-04-21 16:14 44 Kb217
Klax (UK) (1990) (CPM) [a1].zip 2017-04-21 16:14 44 Kb232
Klax (UK) (1990) (CPM Version).zip 2017-04-21 16:14 43 Kb215
Klax (UK) (1990) (CPM Version) [a1].zip 2017-04-21 16:14 43 Kb224
Klax (UK) (1990) (Cart).zip 2017-04-21 16:14 41 Kb228
Klax (UK) (1990).zip 2017-04-21 16:14 42 Kb217
Klax (UK) (1990) [a1].zip 2017-04-21 16:14 42 Kb230
Klax (UK) (1990) [h1].zip 2017-04-21 16:14 52 Kb220
Klax (UK) (1990) [h2].zip 2017-04-21 16:14 54 Kb224
Knaves and thou Prisoners (UK) (19xx).zip 2017-04-21 16:14 8 Kb215
Knight Force (F) (1989) (Disk 1 of 2).zip 2017-04-21 16:14 54 Kb219
Knight Force (F) (1989) (Disk 1 of 2) [t1].zip 2017-04-21 16:14 55 Kb215
Knight Force (F) (1989) (Disk 1 of 2) [t2] & Power Drift.zip 2017-04-21 16:14 108 Kb132
Knight Force (F) (1989) (Disk 1 of 2) [t2].zip 2017-04-21 16:14 75 Kb212
Knight Force (F) (1989) (Disk 2 of 2).zip 2017-04-21 16:14 76 Kb222
Knight Force (F) - Disk 1A.dsk 2017-04-21 16:14 456 Kb224
Knight Force (F) - Disk 1B.dsk 2017-04-21 16:14 627 Kb224
Knight Games (E) - Side A.cdt 2017-04-21 16:14 166 Kb232
Knight Games (E) - Side B.cdt 2017-04-21 16:14 142 Kb221
Knight Games (UK) (1986) (Disk 1 of 2).zip 2017-04-21 16:14 88 Kb225
Knight Games (UK) (1986) (Disk 1 of 2) [a1].zip 2017-04-21 16:14 83 Kb216
Knight Games (UK) (1986) (Disk 1 of 2) [a2].zip 2017-04-21 16:14 83 Kb215
Knight Games (UK) (1986) (Disk 1 of 2) [a3].zip 2017-04-21 16:14 103 Kb209
Knight Games (UK) (1986) (Disk 2 of 2).zip 2017-04-21 16:14 94 Kb225
Knight Games (UK) (1986) (Disk 2 of 2) [a1].zip 2017-04-21 16:14 76 Kb216
Knight Games (UK) (1986) (Disk 2 of 2) [a2].zip 2017-04-21 16:14 79 Kb214
Knight Games (UK) (1986) (Disk 2 of 2) [a3].zip 2017-04-21 16:14 109 Kb215
Knight Games (UK) (1986) [f1][t1].zip 2017-04-21 16:14 179 Kb220
Knight Lore (E).cdt 2017-04-21 16:14 42 Kb224
Knight Lore (UK) (1984).zip 2017-04-21 16:14 25 Kb229
Knight Lore (UK) (1984) [a1].zip 2017-04-21 16:14 25 Kb219
Knight Lore (UK) (1984) [a2].zip 2017-04-21 16:14 25 Kb228
Knight Moves (F) (19xx) (Disk 1 of 2).zip 2017-04-21 16:14 60 Kb220
Knight Moves (F) (19xx) (Disk 2 of 2).zip 2017-04-21 16:14 83 Kb222
Knight Orc (E) - Disk 1A.dsk 2017-04-21 16:14 194 Kb223
Knight Orc (E) - Disk 1B.dsk 2017-04-21 16:14 199 Kb224
Knight Orc (UK) (1987) (Disk 1 of 2).zip 2017-04-21 16:14 119 Kb233
Knight Orc (UK) (1987) (Disk 2 of 2).zip 2017-04-21 16:14 110 Kb226
Knight Rider (E).cdt 2017-04-21 16:14 45 Kb229
Knight Rider (UK) (1986).zip 2017-04-21 16:14 20 Kb222
Knight Rider (UK) (1986) [h1].zip 2017-04-21 16:14 32 Kb220
Knight Rider (UK) (1986) [h2].zip 2017-04-21 16:14 21 Kb227
Knight Tyme (E).cdt 2017-04-21 16:14 57 Kb230
Knight Tyme (UK) (1986).zip 2017-04-21 16:14 31 Kb232
Knight Tyme (UK) (1986) [a1].zip 2017-04-21 16:14 31 Kb226
Knight Tyme (UK) (1986) [t1].zip 2017-04-21 16:14 31 Kb218
Knightmare (E).dsk 2017-04-21 16:14 213 Kb240
Knightmare (UK) (1987).zip 2017-04-21 16:14 29 Kb221
Knightmare (UK) (1987) [a1].zip 2017-04-21 16:14 30 Kb220
Knightmare (UK) (1987) [a2].zip 2017-04-21 16:14 30 Kb229
Knightmare (UK) (1987) [t1].zip 2017-04-21 16:14 33 Kb223
Know (G).dsk 2017-04-21 16:14 192 Kb240
Kobayashi Naru (UK) (19xx).zip 2017-04-21 16:14 31 Kb233
Kobayashi Naru (UK) (1987).zip 2017-04-21 16:14 31 Kb238
Kobayashi Naru (UK) (1987) [a1].zip 2017-04-21 16:14 31 Kb223
Kobayashi Naru (UK) (1987) [a2].zip 2017-04-21 16:14 48 Kb244
Kokotoni Wilf (UK) (19xx).zip 2017-04-21 16:14 137 Kb232
Kokotoni Wilf (UK) (19xx) [a1].zip 2017-04-21 16:14 35 Kb231
Kokotoni Wilf (UK) (19xx) [f1][t1].zip 2017-04-21 16:14 37 Kb223
Konami's Golf (UK) (1986).zip 2017-04-21 16:14 24 Kb220
Konami's Golf (UK) (1986) [a1].zip 2017-04-21 16:14 24 Kb223
Konami's Golf (UK) (1986) [a2].zip 2017-04-21 16:14 26 Kb226
Konami Coin-op Hits (UK) (19xx) (Disk 1 of 2).zip 2017-04-21 16:14 50 Kb226
Konami Coin-op Hits (UK) (19xx) (Disk 1 of 2) [a1].zip 2017-04-21 16:14 50 Kb213
Konami Coin-op Hits (UK) (19xx) (Disk 2 of 2).zip 2017-04-21 16:14 65 Kb217
Konami Coin-op Hits (UK) (19xx) (Disk 2 of 2) [a1].zip 2017-04-21 16:14 65 Kb236
Konami Coin-op Hits (UK) (19xx) (Disk 2 of 2) [a2].zip 2017-04-21 16:14 65 Kb216
Kong Strikes Back (UK) (1985).zip 2017-04-21 16:14 21 Kb239
Kong Strikes Back (UK) (1985) [a1].zip 2017-04-21 16:14 21 Kb236
Kong Strikes Back (UK) (1985) [a2].zip 2017-04-21 16:14 23 Kb225
Koronis Rift (E).dsk 2017-04-21 16:14 186 Kb229
Koronis Rift (UK) (1987).zip 2017-04-21 16:14 57 Kb229
Krakout (E).cdt 2017-04-21 16:14 64 Kb239
Krakout (E).dsk 2017-04-21 16:14 171 Kb230
Krakout (UK) (1987).zip 2017-04-21 16:14 31 Kb229
Krakout (UK) (1987) [h1].zip 2017-04-21 16:14 34 Kb229
Kristal (F).dsk 2017-04-21 16:14 191 Kb231
Kristal (UK) (1985).zip 2017-04-21 16:14 16 Kb234
Kristax (UK) (1989).zip 2017-04-21 16:14 9 Kb235
Krypton Factor (UK) (1987) (Disk 1 of 2).zip 2017-04-21 16:14 52 Kb218
Krypton Factor (UK) (1987) (Disk 1 of 2) [a1].zip 2017-04-21 16:14 47 Kb226
Krypton Factor (UK) (1987) (Disk 2 of 2).zip 2017-04-21 16:14 5 Kb224
Krypton Factor (UK) (1987) (Disk 2 of 2) [a1].zip 2017-04-21 16:14 21 Kb222
Kung-Fu (UK) (1986).zip 2017-04-21 16:14 19 Kb225
Kung-Fu Master (E).dsk 2017-04-21 16:14 191 Kb220
Kung-Fu Master (UK) (1986).zip 2017-04-21 16:14 28 Kb236
Kung-Fu Master (UK) (1986) [h1].zip 2017-04-21 16:14 22 Kb227
Kwah (UK) (1987).zip 2017-04-21 16:14 36 Kb213
Kwik Snax (E).cdt 2017-04-21 16:14 65 Kb241
Kwik Snax (UK) (1990).zip 2017-04-21 16:14 22 Kb221
Kwik Snax (UK) (1990) [f1].zip 2017-04-21 16:14 33 Kb234
Kwik Snax (UK) (1990) [h1].zip 2017-04-21 16:14 41 Kb227
Kwik Snax (UK) (1990) [t1].zip 2017-04-21 16:14 33 Kb229
kobayashi Naru (E).cdt 2017-04-21 16:14 74 Kb229
180 Files
-JavaCPC -demo -emu -j-cpc_ani -tools 0-9 A B C D E F G H I J K L M N O P Q R S T U V W X Y Z roms